sensor_id;sensor_type;location;lat;lon;timestamp;P1;durP1;ratioP1;P2;durP2;ratioP2
29730;SDS011;16639;51.488;0.152;2023-04-01T00:05:29;13.40;;;8.70;;
29730;SDS011;16639;51.488;0.152;2023-04-01T00:07:57;17.45;;;10.95;;
29730;SDS011;16639;51.488;0.152;2023-04-01T00:10:24;17.33;;;10.23;;
29730;SDS011;16639;51.488;0.152;2023-04-01T00:12:51;16.35;;;10.30;;
29730;SDS011;16639;51.488;0.152;2023-04-01T00:15:20;15.93;;;9.98;;
29730;SDS011;16639;51.488;0.152;2023-04-01T00:17:47;14.00;;;9.27;;
29730;SDS011;16639;51.488;0.152;2023-04-01T00:20:15;18.40;;;10.38;;
29730;SDS011;16639;51.488;0.152;2023-04-01T00:22:42;12.77;;;9.02;;
29730;SDS011;16639;51.488;0.152;2023-04-01T00:25:10;12.73;;;8.80;;
29730;SDS011;16639;51.488;0.152;2023-04-01T00:27:38;13.45;;;7.43;;
29730;SDS011;16639;51.488;0.152;2023-04-01T00:30:05;12.52;;;7.70;;
29730;SDS011;16639;51.488;0.152;2023-04-01T00:32:34;8.30;;;6.72;;
29730;SDS011;16639;51.488;0.152;2023-04-01T00:35:02;7.95;;;6.10;;
29730;SDS011;16639;51.488;0.152;2023-04-01T00:37:30;7.38;;;5.47;;
29730;SDS011;16639;51.488;0.152;2023-04-01T00:39:57;7.22;;;6.10;;
29730;SDS011;16639;51.488;0.152;2023-04-01T00:42:25;8.27;;;6.32;;
29730;SDS011;16639;51.488;0.152;2023-04-01T00:44:53;7.65;;;6.32;;
29730;SDS011;16639;51.488;0.152;2023-04-01T00:47:22;8.45;;;5.88;;
29730;SDS011;16639;51.488;0.152;2023-04-01T00:49:52;9.55;;;6.10;;
29730;SDS011;16639;51.488;0.152;2023-04-01T00:52:21;8.05;;;6.50;;
29730;SDS011;16639;51.488;0.152;2023-04-01T00:58:11;9.85;;;5.65;;
29730;SDS011;16639;51.488;0.152;2023-04-01T01:00:46;11.35;;;7.32;;
29730;SDS011;16639;51.488;0.152;2023-04-01T01:03:35;7.40;;;5.90;;
29730;SDS011;16639;51.488;0.152;2023-04-01T01:06:08;12.85;;;6.85;;
29730;SDS011;16639;51.488;0.152;2023-04-01T01:11:25;9.10;;;6.10;;
29730;SDS011;16639;51.488;0.152;2023-04-01T01:22:21;9.27;;;6.35;;
29730;SDS011;16639;51.488;0.152;2023-04-01T01:28:07;8.75;;;6.65;;
29730;SDS011;16639;51.488;0.152;2023-04-01T01:31:10;8.45;;;5.07;;
29730;SDS011;16639;51.488;0.152;2023-04-01T01:34:07;7.53;;;5.80;;
29730;SDS011;16639;51.488;0.152;2023-04-01T01:36:48;6.45;;;4.93;;
29730;SDS011;16639;51.488;0.152;2023-04-01T01:39:20;9.75;;;6.15;;
29730;SDS011;16639;51.488;0.152;2023-04-01T01:41:55;10.65;;;5.05;;
29730;SDS011;16639;51.488;0.152;2023-04-01T01:44:27;9.88;;;5.88;;
29730;SDS011;16639;51.488;0.152;2023-04-01T01:46:56;8.63;;;6.13;;
29730;SDS011;16639;51.488;0.152;2023-04-01T01:49:24;9.77;;;6.90;;
29730;SDS011;16639;51.488;0.152;2023-04-01T01:51:52;6.97;;;5.80;;
29730;SDS011;16639;51.488;0.152;2023-04-01T01:54:20;7.50;;;5.55;;
29730;SDS011;16639;51.488;0.152;2023-04-01T01:56:48;7.50;;;5.60;;
29730;SDS011;16639;51.488;0.152;2023-04-01T01:59:19;9.60;;;5.82;;
29730;SDS011;16639;51.488;0.152;2023-04-01T02:01:49;6.75;;;5.20;;
29730;SDS011;16639;51.488;0.152;2023-04-01T02:04:19;9.02;;;5.82;;
29730;SDS011;16639;51.488;0.152;2023-04-01T02:07:01;10.48;;;6.07;;
29730;SDS011;16639;51.488;0.152;2023-04-01T02:09:33;11.68;;;7.28;;
29730;SDS011;16639;51.488;0.152;2023-04-01T02:12:02;10.10;;;5.82;;
29730;SDS011;16639;51.488;0.152;2023-04-01T02:14:37;8.68;;;6.35;;
29730;SDS011;16639;51.488;0.152;2023-04-01T02:17:29;6.03;;;5.00;;
29730;SDS011;16639;51.488;0.152;2023-04-01T02:20:00;8.80;;;4.85;;
29730;SDS011;16639;51.488;0.152;2023-04-01T02:22:31;5.95;;;5.25;;
29730;SDS011;16639;51.488;0.152;2023-04-01T02:25:06;16.50;;;5.90;;
29730;SDS011;16639;51.488;0.152;2023-04-01T02:27:40;5.57;;;4.05;;
29730;SDS011;16639;51.488;0.152;2023-04-01T02:30:10;7.25;;;4.63;;
29730;SDS011;16639;51.488;0.152;2023-04-01T02:32:39;6.43;;;5.00;;
29730;SDS011;16639;51.488;0.152;2023-04-01T02:35:07;6.20;;;4.72;;
29730;SDS011;16639;51.488;0.152;2023-04-01T02:37:37;7.40;;;4.65;;
29730;SDS011;16639;51.488;0.152;2023-04-01T02:40:10;9.10;;;5.88;;
29730;SDS011;16639;51.488;0.152;2023-04-01T02:42:39;8.93;;;5.05;;
29730;SDS011;16639;51.488;0.152;2023-04-01T02:45:07;8.60;;;5.47;;
29730;SDS011;16639;51.488;0.152;2023-04-01T02:47:36;9.98;;;5.68;;
29730;SDS011;16639;51.488;0.152;2023-04-01T02:50:25;8.68;;;5.65;;
29730;SDS011;16639;51.488;0.152;2023-04-01T02:52:51;8.73;;;6.40;;
29730;SDS011;16639;51.488;0.152;2023-04-01T02:55:19;8.85;;;5.88;;
29730;SDS011;16639;51.488;0.152;2023-04-01T02:57:46;7.25;;;6.00;;
29730;SDS011;16639;51.488;0.152;2023-04-01T03:00:14;7.65;;;5.88;;
29730;SDS011;16639;51.488;0.152;2023-04-01T03:02:42;7.43;;;5.50;;
29730;SDS011;16639;51.488;0.152;2023-04-01T03:05:11;7.88;;;5.95;;
29730;SDS011;16639;51.488;0.152;2023-04-01T03:07:39;9.43;;;6.15;;
29730;SDS011;16639;51.488;0.152;2023-04-01T03:10:07;9.27;;;6.22;;
29730;SDS011;16639;51.488;0.152;2023-04-01T03:12:35;6.93;;;5.18;;
29730;SDS011;16639;51.488;0.152;2023-04-01T03:15:02;8.07;;;5.85;;
29730;SDS011;16639;51.488;0.152;2023-04-01T03:17:37;9.27;;;4.85;;
29730;SDS011;16639;51.488;0.152;2023-04-01T03:20:05;8.88;;;5.45;;
29730;SDS011;16639;51.488;0.152;2023-04-01T03:22:35;7.05;;;5.32;;
29730;SDS011;16639;51.488;0.152;2023-04-01T03:25:03;8.55;;;5.43;;
29730;SDS011;16639;51.488;0.152;2023-04-01T03:27:31;10.70;;;6.57;;
29730;SDS011;16639;51.488;0.152;2023-04-01T03:29:59;9.88;;;6.13;;
29730;SDS011;16639;51.488;0.152;2023-04-01T03:32:26;6.82;;;4.43;;
29730;SDS011;16639;51.488;0.152;2023-04-01T03:34:54;8.48;;;5.75;;
29730;SDS011;16639;51.488;0.152;2023-04-01T03:37:22;6.07;;;4.10;;
29730;SDS011;16639;51.488;0.152;2023-04-01T03:39:50;4.30;;;3.35;;
29730;SDS011;16639;51.488;0.152;2023-04-01T03:42:17;5.15;;;4.28;;
29730;SDS011;16639;51.488;0.152;2023-04-01T03:44:45;49.30;;;7.32;;
29730;SDS011;16639;51.488;0.152;2023-04-01T03:47:12;5.70;;;3.75;;
29730;SDS011;16639;51.488;0.152;2023-04-01T03:49:40;6.00;;;4.18;;
29730;SDS011;16639;51.488;0.152;2023-04-01T03:52:08;6.15;;;4.00;;
29730;SDS011;16639;51.488;0.152;2023-04-01T03:54:37;7.03;;;4.43;;
29730;SDS011;16639;51.488;0.152;2023-04-01T03:57:05;6.93;;;4.07;;
29730;SDS011;16639;51.488;0.152;2023-04-01T03:59:32;6.60;;;4.00;;
29730;SDS011;16639;51.488;0.152;2023-04-01T04:02:00;6.68;;;4.88;;
29730;SDS011;16639;51.488;0.152;2023-04-01T04:04:28;14.23;;;4.75;;
29730;SDS011;16639;51.488;0.152;2023-04-01T04:06:56;6.72;;;4.30;;
29730;SDS011;16639;51.488;0.152;2023-04-01T04:09:24;11.48;;;4.82;;
29730;SDS011;16639;51.488;0.152;2023-04-01T04:11:52;10.85;;;5.25;;
29730;SDS011;16639;51.488;0.152;2023-04-01T04:14:19;5.20;;;4.35;;
29730;SDS011;16639;51.488;0.152;2023-04-01T04:16:46;6.68;;;4.50;;
29730;SDS011;16639;51.488;0.152;2023-04-01T04:19:14;7.05;;;4.63;;
29730;SDS011;16639;51.488;0.152;2023-04-01T04:21:42;8.93;;;4.43;;
29730;SDS011;16639;51.488;0.152;2023-04-01T04:24:09;9.98;;;5.18;;
29730;SDS011;16639;51.488;0.152;2023-04-01T04:26:37;7.38;;;3.88;;
29730;SDS011;16639;51.488;0.152;2023-04-01T04:29:04;5.93;;;4.38;;
29730;SDS011;16639;51.488;0.152;2023-04-01T04:31:33;9.85;;;4.50;;
29730;SDS011;16639;51.488;0.152;2023-04-01T04:34:01;10.15;;;5.20;;
29730;SDS011;16639;51.488;0.152;2023-04-01T04:36:29;8.30;;;5.68;;
29730;SDS011;16639;51.488;0.152;2023-04-01T04:38:56;7.00;;;4.82;;
29730;SDS011;16639;51.488;0.152;2023-04-01T04:41:24;7.68;;;5.65;;
29730;SDS011;16639;51.488;0.152;2023-04-01T04:43:53;12.70;;;6.47;;
29730;SDS011;16639;51.488;0.152;2023-04-01T04:46:22;9.68;;;6.22;;
29730;SDS011;16639;51.488;0.152;2023-04-01T04:48:50;12.57;;;6.07;;
29730;SDS011;16639;51.488;0.152;2023-04-01T04:51:18;12.98;;;5.88;;
29730;SDS011;16639;51.488;0.152;2023-04-01T04:53:46;8.38;;;5.80;;
29730;SDS011;16639;51.488;0.152;2023-04-01T04:56:17;10.23;;;6.15;;
29730;SDS011;16639;51.488;0.152;2023-04-01T04:58:48;11.60;;;5.47;;
29730;SDS011;16639;51.488;0.152;2023-04-01T05:01:16;8.55;;;4.65;;
29730;SDS011;16639;51.488;0.152;2023-04-01T05:03:45;10.32;;;5.38;;
29730;SDS011;16639;51.488;0.152;2023-04-01T05:06:31;6.88;;;4.70;;
29730;SDS011;16639;51.488;0.152;2023-04-01T05:08:58;7.20;;;4.90;;
29730;SDS011;16639;51.488;0.152;2023-04-01T05:11:26;11.48;;;5.20;;
29730;SDS011;16639;51.488;0.152;2023-04-01T05:13:54;8.25;;;5.55;;
29730;SDS011;16639;51.488;0.152;2023-04-01T05:16:22;7.78;;;5.00;;
29730;SDS011;16639;51.488;0.152;2023-04-01T05:18:49;10.13;;;6.03;;
29730;SDS011;16639;51.488;0.152;2023-04-01T05:21:17;8.48;;;6.13;;
29730;SDS011;16639;51.488;0.152;2023-04-01T05:23:44;5.25;;;4.43;;
29730;SDS011;16639;51.488;0.152;2023-04-01T05:26:12;9.70;;;4.43;;
29730;SDS011;16639;51.488;0.152;2023-04-01T05:28:41;9.80;;;5.60;;
29730;SDS011;16639;51.488;0.152;2023-04-01T05:31:09;14.25;;;5.32;;
29730;SDS011;16639;51.488;0.152;2023-04-01T05:33:37;7.93;;;5.22;;
29730;SDS011;16639;51.488;0.152;2023-04-01T05:38:43;11.52;;;6.30;;
29730;SDS011;16639;51.488;0.152;2023-04-01T05:41:13;11.82;;;6.60;;
29730;SDS011;16639;51.488;0.152;2023-04-01T05:43:41;12.70;;;7.38;;
29730;SDS011;16639;51.488;0.152;2023-04-01T05:46:09;10.85;;;6.25;;
29730;SDS011;16639;51.488;0.152;2023-04-01T05:48:36;11.80;;;7.18;;
29730;SDS011;16639;51.488;0.152;2023-04-01T05:51:04;14.73;;;6.57;;
29730;SDS011;16639;51.488;0.152;2023-04-01T05:53:32;12.55;;;7.20;;
29730;SDS011;16639;51.488;0.152;2023-04-01T05:56:03;12.30;;;7.20;;
29730;SDS011;16639;51.488;0.152;2023-04-01T05:58:31;11.70;;;7.10;;
29730;SDS011;16639;51.488;0.152;2023-04-01T06:01:05;11.10;;;6.38;;
29730;SDS011;16639;51.488;0.152;2023-04-01T06:03:39;8.43;;;6.25;;
29730;SDS011;16639;51.488;0.152;2023-04-01T06:06:13;10.48;;;6.53;;
29730;SDS011;16639;51.488;0.152;2023-04-01T06:08:42;15.02;;;7.57;;
29730;SDS011;16639;51.488;0.152;2023-04-01T06:27:45;14.35;;;6.65;;
29730;SDS011;16639;51.488;0.152;2023-04-01T06:33:32;15.25;;;6.60;;
29730;SDS011;16639;51.488;0.152;2023-04-01T06:49:57;9.88;;;6.13;;
29730;SDS011;16639;51.488;0.152;2023-04-01T06:55:48;10.07;;;6.35;;
29730;SDS011;16639;51.488;0.152;2023-04-01T06:58:21;10.45;;;6.25;;
29730;SDS011;16639;51.488;0.152;2023-04-01T07:00:59;9.07;;;6.15;;
29730;SDS011;16639;51.488;0.152;2023-04-01T07:03:32;7.65;;;5.22;;
29730;SDS011;16639;51.488;0.152;2023-04-01T07:06:04;10.40;;;5.97;;
29730;SDS011;16639;51.488;0.152;2023-04-01T07:08:36;7.22;;;4.50;;
29730;SDS011;16639;51.488;0.152;2023-04-01T07:11:09;8.35;;;5.38;;
29730;SDS011;16639;51.488;0.152;2023-04-01T07:14:13;9.07;;;4.45;;
29730;SDS011;16639;51.488;0.152;2023-04-01T07:16:47;9.45;;;5.55;;
29730;SDS011;16639;51.488;0.152;2023-04-01T07:19:37;8.98;;;5.32;;
29730;SDS011;16639;51.488;0.152;2023-04-01T07:24:55;11.52;;;5.15;;
29730;SDS011;16639;51.488;0.152;2023-04-01T07:27:28;9.70;;;6.00;;
29730;SDS011;16639;51.488;0.152;2023-04-01T07:29:56;9.52;;;6.25;;
29730;SDS011;16639;51.488;0.152;2023-04-01T07:47:02;20.38;;;10.98;;
29730;SDS011;16639;51.488;0.152;2023-04-01T07:49:40;27.50;;;12.75;;
29730;SDS011;16639;51.488;0.152;2023-04-01T07:57:41;18.20;;;11.23;;
29730;SDS011;16639;51.488;0.152;2023-04-01T08:00:25;18.02;;;10.30;;
29730;SDS011;16639;51.488;0.152;2023-04-01T08:03:16;14.63;;;9.50;;
29730;SDS011;16639;51.488;0.152;2023-04-01T08:09:20;21.20;;;9.43;;
29730;SDS011;16639;51.488;0.152;2023-04-01T08:20:53;16.75;;;9.95;;
29730;SDS011;16639;51.488;0.152;2023-04-01T08:23:33;21.48;;;8.45;;
29730;SDS011;16639;51.488;0.152;2023-04-01T08:26:11;16.35;;;10.23;;
29730;SDS011;16639;51.488;0.152;2023-04-01T08:29:14;17.33;;;8.70;;
29730;SDS011;16639;51.488;0.152;2023-04-01T08:32:12;16.67;;;9.25;;
29730;SDS011;16639;51.488;0.152;2023-04-01T08:34:46;15.98;;;7.88;;
29730;SDS011;16639;51.488;0.152;2023-04-01T08:37:21;15.95;;;8.18;;
29730;SDS011;16639;51.488;0.152;2023-04-01T08:39:54;14.88;;;8.02;;
29730;SDS011;16639;51.488;0.152;2023-04-01T08:53:42;9.68;;;6.85;;
29730;SDS011;16639;51.488;0.152;2023-04-01T09:07:20;8.82;;;6.38;;
29730;SDS011;16639;51.488;0.152;2023-04-01T09:13:04;8.85;;;5.13;;
29730;SDS011;16639;51.488;0.152;2023-04-01T09:27:48;7.85;;;5.82;;
29730;SDS011;16639;51.488;0.152;2023-04-01T09:35:50;8.25;;;5.38;;
29730;SDS011;16639;51.488;0.152;2023-04-01T09:44:03;9.00;;;6.35;;
29730;SDS011;16639;51.488;0.152;2023-04-01T09:50:10;12.65;;;5.13;;
29730;SDS011;16639;51.488;0.152;2023-04-01T09:53:07;9.63;;;5.35;;
29730;SDS011;16639;51.488;0.152;2023-04-01T09:56:06;6.15;;;4.78;;
29730;SDS011;16639;51.488;0.152;2023-04-01T10:06:50;7.50;;;4.00;;
29730;SDS011;16639;51.488;0.152;2023-04-01T10:23:22;8.18;;;5.40;;
29730;SDS011;16639;51.488;0.152;2023-04-01T10:46:53;12.60;;;7.47;;
29730;SDS011;16639;51.488;0.152;2023-04-01T11:00:18;15.02;;;8.77;;
29730;SDS011;16639;51.488;0.152;2023-04-01T11:35:32;21.45;;;11.55;;
29730;SDS011;16639;51.488;0.152;2023-04-01T11:38:22;25.63;;;12.02;;
29730;SDS011;16639;51.488;0.152;2023-04-01T11:44:04;17.48;;;9.68;;
29730;SDS011;16639;51.488;0.152;2023-04-01T11:46:52;19.83;;;10.30;;
29730;SDS011;16639;51.488;0.152;2023-04-01T11:52:23;17.30;;;8.13;;
29730;SDS011;16639;51.488;0.152;2023-04-01T11:55:06;14.18;;;6.57;;
29730;SDS011;16639;51.488;0.152;2023-04-01T12:11:34;15.70;;;6.65;;
29730;SDS011;16639;51.488;0.152;2023-04-01T12:19:46;18.40;;;5.97;;
29730;SDS011;16639;51.488;0.152;2023-04-01T12:42:23;9.23;;;4.85;;
29730;SDS011;16639;51.488;0.152;2023-04-01T12:45:30;15.02;;;5.55;;
29730;SDS011;16639;51.488;0.152;2023-04-01T13:00:03;8.18;;;4.90;;
29730;SDS011;16639;51.488;0.152;2023-04-01T13:05:56;9.57;;;6.18;;
29730;SDS011;16639;51.488;0.152;2023-04-01T13:08:44;14.43;;;5.32;;
29730;SDS011;16639;51.488;0.152;2023-04-01T13:14:31;8.35;;;4.93;;
29730;SDS011;16639;51.488;0.152;2023-04-01T13:17:22;9.18;;;4.32;;
29730;SDS011;16639;51.488;0.152;2023-04-01T13:22:55;9.93;;;3.95;;
29730;SDS011;16639;51.488;0.152;2023-04-01T13:25:54;4.95;;;2.83;;
29730;SDS011;16639;51.488;0.152;2023-04-01T13:31:30;5.97;;;4.10;;
29730;SDS011;16639;51.488;0.152;2023-04-01T13:43:11;8.90;;;3.70;;
29730;SDS011;16639;51.488;0.152;2023-04-01T13:57:33;4.78;;;3.30;;
29730;SDS011;16639;51.488;0.152;2023-04-01T14:00:19;9.20;;;4.07;;
29730;SDS011;16639;51.488;0.152;2023-04-01T14:22:46;9.88;;;4.68;;
29730;SDS011;16639;51.488;0.152;2023-04-01T14:25:51;13.10;;;4.70;;
29730;SDS011;16639;51.488;0.152;2023-04-01T14:31:42;9.82;;;4.65;;
29730;SDS011;16639;51.488;0.152;2023-04-01T14:43:21;8.35;;;5.28;;
29730;SDS011;16639;51.488;0.152;2023-04-01T14:51:37;10.85;;;5.53;;
29730;SDS011;16639;51.488;0.152;2023-04-01T14:54:13;9.55;;;5.90;;
29730;SDS011;16639;51.488;0.152;2023-04-01T14:59:48;10.07;;;5.00;;
29730;SDS011;16639;51.488;0.152;2023-04-01T15:02:57;9.50;;;5.55;;
29730;SDS011;16639;51.488;0.152;2023-04-01T15:08:33;12.98;;;5.75;;
29730;SDS011;16639;51.488;0.152;2023-04-01T15:16:27;13.35;;;5.15;;
29730;SDS011;16639;51.488;0.152;2023-04-01T15:19:29;12.05;;;4.88;;
29730;SDS011;16639;51.488;0.152;2023-04-01T15:27:52;12.10;;;4.20;;
29730;SDS011;16639;51.488;0.152;2023-04-01T15:30:33;7.57;;;3.90;;
29730;SDS011;16639;51.488;0.152;2023-04-01T15:33:20;10.65;;;3.92;;
29730;SDS011;16639;51.488;0.152;2023-04-01T15:45:14;13.63;;;5.20;;
29730;SDS011;16639;51.488;0.152;2023-04-01T15:47:53;8.38;;;4.97;;
29730;SDS011;16639;51.488;0.152;2023-04-01T15:53:54;12.82;;;5.72;;
29730;SDS011;16639;51.488;0.152;2023-04-01T16:01:53;11.70;;;4.72;;
29730;SDS011;16639;51.488;0.152;2023-04-01T16:04:55;8.60;;;5.78;;
29730;SDS011;16639;51.488;0.152;2023-04-01T16:07:41;14.52;;;6.38;;
29730;SDS011;16639;51.488;0.152;2023-04-01T16:13:02;15.35;;;7.25;;
29730;SDS011;16639;51.488;0.152;2023-04-01T16:18:53;9.32;;;5.85;;
29730;SDS011;16639;51.488;0.152;2023-04-01T16:24:41;20.65;;;8.13;;
29730;SDS011;16639;51.488;0.152;2023-04-01T16:30:26;17.98;;;8.50;;
29730;SDS011;16639;51.488;0.152;2023-04-01T16:36:01;12.70;;;7.20;;
29730;SDS011;16639;51.488;0.152;2023-04-01T16:43:56;11.30;;;5.80;;
29730;SDS011;16639;51.488;0.152;2023-04-01T16:46:40;13.90;;;6.72;;
29730;SDS011;16639;51.488;0.152;2023-04-01T16:54:17;11.98;;;6.35;;
29730;SDS011;16639;51.488;0.152;2023-04-01T16:56:47;15.27;;;5.93;;
29730;SDS011;16639;51.488;0.152;2023-04-01T16:59:27;8.93;;;6.40;;
29730;SDS011;16639;51.488;0.152;2023-04-01T17:12:51;11.82;;;6.20;;
29730;SDS011;16639;51.488;0.152;2023-04-01T17:15:36;12.43;;;6.45;;
29730;SDS011;16639;51.488;0.152;2023-04-01T17:24:09;11.88;;;5.28;;
29730;SDS011;16639;51.488;0.152;2023-04-01T17:32:03;10.57;;;5.30;;
29730;SDS011;16639;51.488;0.152;2023-04-01T17:39:57;7.35;;;6.00;;
29730;SDS011;16639;51.488;0.152;2023-04-01T17:55:15;10.07;;;5.25;;
29730;SDS011;16639;51.488;0.152;2023-04-01T17:58:02;9.65;;;4.88;;
29730;SDS011;16639;51.488;0.152;2023-04-01T18:00:48;12.50;;;6.57;;
29730;SDS011;16639;51.488;0.152;2023-04-01T18:11:33;8.30;;;5.43;;
29730;SDS011;16639;51.488;0.152;2023-04-01T18:14:20;8.77;;;5.07;;
29730;SDS011;16639;51.488;0.152;2023-04-01T18:17:18;13.20;;;5.63;;
29730;SDS011;16639;51.488;0.152;2023-04-01T18:25:42;7.60;;;4.68;;
29730;SDS011;16639;51.488;0.152;2023-04-01T18:28:22;9.63;;;4.95;;
29730;SDS011;16639;51.488;0.152;2023-04-01T18:31:08;17.08;;;5.03;;
29730;SDS011;16639;51.488;0.152;2023-04-01T18:34:08;9.75;;;4.97;;
29730;SDS011;16639;51.488;0.152;2023-04-01T18:36:59;13.45;;;6.15;;
29730;SDS011;16639;51.488;0.152;2023-04-01T18:39:40;9.88;;;5.93;;
29730;SDS011;16639;51.488;0.152;2023-04-01T18:56:08;10.63;;;6.25;;
29730;SDS011;16639;51.488;0.152;2023-04-01T18:58:52;9.77;;;5.97;;
29730;SDS011;16639;51.488;0.152;2023-04-01T19:06:53;5.13;;;4.20;;
29730;SDS011;16639;51.488;0.152;2023-04-01T19:09:25;20.20;;;5.45;;
29730;SDS011;16639;51.488;0.152;2023-04-01T19:15:10;6.78;;;3.03;;
29730;SDS011;16639;51.488;0.152;2023-04-01T19:23:31;9.50;;;4.35;;
29730;SDS011;16639;51.488;0.152;2023-04-01T19:26:05;5.95;;;2.92;;
29730;SDS011;16639;51.488;0.152;2023-04-01T19:45:16;6.07;;;3.28;;
29730;SDS011;16639;51.488;0.152;2023-04-01T19:53:37;11.07;;;3.78;;
29730;SDS011;16639;51.488;0.152;2023-04-01T19:56:14;8.85;;;3.83;;
29730;SDS011;16639;51.488;0.152;2023-04-01T20:01:24;10.77;;;4.18;;
29730;SDS011;16639;51.488;0.152;2023-04-01T20:04:12;9.30;;;3.90;;
29730;SDS011;16639;51.488;0.152;2023-04-01T20:12:34;7.82;;;3.15;;
29730;SDS011;16639;51.488;0.152;2023-04-01T20:15:21;13.35;;;4.70;;
29730;SDS011;16639;51.488;0.152;2023-04-01T20:17:53;12.18;;;3.40;;
29730;SDS011;16639;51.488;0.152;2023-04-01T20:20:25;5.55;;;2.97;;
29730;SDS011;16639;51.488;0.152;2023-04-01T20:25:59;6.22;;;3.25;;
29730;SDS011;16639;51.488;0.152;2023-04-01T20:28:36;6.07;;;3.47;;
29730;SDS011;16639;51.488;0.152;2023-04-01T20:31:24;7.63;;;3.08;;
29730;SDS011;16639;51.488;0.152;2023-04-01T20:37:18;7.70;;;3.10;;
29730;SDS011;16639;51.488;0.152;2023-04-01T20:57:11;10.40;;;3.40;;
29730;SDS011;16639;51.488;0.152;2023-04-01T21:08:49;7.70;;;2.10;;
29730;SDS011;16639;51.488;0.152;2023-04-01T21:11:43;6.57;;;2.20;;
29730;SDS011;16639;51.488;0.152;2023-04-01T21:20:45;4.68;;;2.10;;
29730;SDS011;16639;51.488;0.152;2023-04-01T21:23:28;5.53;;;2.33;;
29730;SDS011;16639;51.488;0.152;2023-04-01T21:29:32;7.22;;;2.03;;
29730;SDS011;16639;51.488;0.152;2023-04-01T21:32:33;5.28;;;2.15;;
29730;SDS011;16639;51.488;0.152;2023-04-01T22:03:38;5.30;;;2.80;;
29730;SDS011;16639;51.488;0.152;2023-04-01T22:12:10;9.85;;;2.97;;
29730;SDS011;16639;51.488;0.152;2023-04-01T22:14:50;5.28;;;2.70;;
29730;SDS011;16639;51.488;0.152;2023-04-01T22:24:37;4.90;;;2.25;;
29730;SDS011;16639;51.488;0.152;2023-04-01T22:30:27;4.43;;;2.45;;
29730;SDS011;16639;51.488;0.152;2023-04-01T22:33:15;6.10;;;3.13;;
29730;SDS011;16639;51.488;0.152;2023-04-01T22:41:31;7.13;;;3.58;;
29730;SDS011;16639;51.488;0.152;2023-04-01T22:47:20;7.40;;;3.10;;
29730;SDS011;16639;51.488;0.152;2023-04-01T22:49:59;3.90;;;2.40;;
29730;SDS011;16639;51.488;0.152;2023-04-01T22:52:37;10.52;;;3.38;;
29730;SDS011;16639;51.488;0.152;2023-04-01T22:55:15;5.50;;;3.05;;
29730;SDS011;16639;51.488;0.152;2023-04-01T23:00:22;5.35;;;2.97;;
29730;SDS011;16639;51.488;0.152;2023-04-01T23:05:44;4.78;;;2.85;;
29730;SDS011;16639;51.488;0.152;2023-04-01T23:10:54;6.88;;;2.70;;
29730;SDS011;16639;51.488;0.152;2023-04-01T23:13:35;6.47;;;2.97;;
29730;SDS011;16639;51.488;0.152;2023-04-01T23:16:10;3.80;;;2.78;;
29730;SDS011;16639;51.488;0.152;2023-04-01T23:21:44;3.35;;;2.50;;
29730;SDS011;16639;51.488;0.152;2023-04-01T23:24:25;4.82;;;2.67;;
29730;SDS011;16639;51.488;0.152;2023-04-01T23:27:03;7.70;;;3.20;;
29730;SDS011;16639;51.488;0.152;2023-04-01T23:29:38;9.07;;;2.70;;
29730;SDS011;16639;51.488;0.152;2023-04-01T23:32:18;4.60;;;2.30;;
29730;SDS011;16639;51.488;0.152;2023-04-01T23:34:57;3.75;;;2.45;;
29730;SDS011;16639;51.488;0.152;2023-04-01T23:37:26;5.22;;;2.40;;
29730;SDS011;16639;51.488;0.152;2023-04-01T23:39:55;2.20;;;2.00;;
29730;SDS011;16639;51.488;0.152;2023-04-01T23:42:27;2.13;;;1.90;;
29730;SDS011;16639;51.488;0.152;2023-04-01T23:45:02;2.60;;;2.40;;
29730;SDS011;16639;51.488;0.152;2023-04-01T23:47:37;5.35;;;2.88;;
29730;SDS011;16639;51.488;0.152;2023-04-01T23:50:07;4.18;;;2.33;;
29730;SDS011;16639;51.488;0.152;2023-04-01T23:55:35;5.03;;;3.03;;
